createdAt,value
2022-11-15T00:00:55.383Z,101046.19
2022-11-15T00:03:24.825Z,101086.84
2022-11-15T00:05:51.564Z,101079.19
2022-11-15T00:08:18.058Z,100997.63
2022-11-15T00:10:55.220Z,101086.84
2022-11-15T00:13:21.624Z,101082.91
2022-11-15T00:15:48.042Z,100920.97
2022-11-15T00:18:15.198Z,101016.31
2022-11-15T00:20:41.707Z,101058.16
2022-11-15T00:23:08.376Z,101044.19
2022-11-15T00:25:35.147Z,100978.38
2022-11-15T00:28:04.472Z,100993.41
2022-11-15T00:30:31.651Z,101019.28
2022-11-15T00:33:02.044Z,100984.41
2022-11-15T00:35:28.561Z,101079.69
2022-11-15T00:37:55.025Z,101003.41
2022-11-15T00:40:21.421Z,101079.34
2022-11-15T00:42:47.829Z,101079.44
2022-11-15T00:45:14.313Z,101070.94
2022-11-15T00:47:46.282Z,101077.13
2022-11-15T00:50:15.103Z,101077.63
2022-11-15T00:52:42.322Z,100998.91
2022-11-15T00:55:14.732Z,101075.44
2022-11-15T00:57:41.159Z,101075.25
2022-11-15T01:00:08.320Z,101039.34
2022-11-15T01:02:35.754Z,101080.31
2022-11-15T01:05:02.241Z,101048.09
2022-11-15T01:07:28.747Z,101066.38
2022-11-15T01:09:55.170Z,101066.19
2022-11-15T01:12:21.651Z,101065.50
2022-11-15T01:14:48.107Z,101051.75
2022-11-15T01:17:14.518Z,101064.00
2022-11-15T01:19:40.922Z,101060.44
2022-11-15T01:22:07.365Z,101058.75
2022-11-15T01:24:33.853Z,101055.47
2022-11-15T01:27:00.339Z,101054.91
2022-11-15T01:29:26.819Z,101057.41
2022-11-15T01:31:55.151Z,101047.06
2022-11-15T01:34:21.576Z,101050.13
2022-11-15T01:36:47.978Z,101047.66
2022-11-15T01:39:14.526Z,100993.53
2022-11-15T01:41:40.986Z,101045.25
2022-11-15T01:44:32.324Z,101040.09
2022-11-15T01:47:01.994Z,101037.78
2022-11-15T01:49:33.369Z,101038.28
2022-11-15T01:52:03.582Z,100987.16
2022-11-15T01:54:30.782Z,101042.06
2022-11-15T01:57:04.792Z,100940.84
2022-11-15T01:59:31.831Z,101038.00
2022-11-15T02:01:58.555Z,100939.22
2022-11-15T02:04:33.984Z,100963.75
2022-11-15T02:07:04.499Z,100987.00
2022-11-15T02:09:31.711Z,101019.59
2022-11-15T02:11:58.602Z,100989.50
2022-11-15T02:14:27.603Z,101014.53
2022-11-15T02:17:10.377Z,101007.00
2022-11-15T02:20:12.211Z,101021.53
2022-11-15T02:23:07.548Z,101013.38
2022-11-15T02:25:37.067Z,101027.06
2022-11-15T02:28:33.447Z,101025.03
2022-11-15T02:31:23.845Z,100947.59
2022-11-15T02:33:57.875Z,100965.59
2022-11-15T02:36:41.079Z,101006.50
2022-11-15T02:39:35.799Z,101001.16
2022-11-15T02:42:30.388Z,100961.88
2022-11-15T02:44:59.250Z,101004.97
2022-11-15T02:47:28.883Z,100997.56
2022-11-15T02:50:09.268Z,100996.56
2022-11-15T02:52:35.736Z,101007.28
2022-11-15T02:55:03.337Z,100985.97
2022-11-15T02:57:48.468Z,100998.41
2022-11-15T03:00:20.444Z,100992.13
2022-11-15T03:03:20.910Z,100937.78
2022-11-15T03:06:09.217Z,100994.59
2022-11-15T03:08:46.626Z,100927.19
2022-11-15T03:11:16.679Z,100997.66
2022-11-15T03:13:58.763Z,101002.63
2022-11-15T03:16:27.947Z,100996.63
2022-11-15T03:19:04.217Z,100995.91
2022-11-15T03:21:33.277Z,100994.78
2022-11-15T03:24:04.919Z,100873.50
2022-11-15T03:26:33.366Z,100954.75
2022-11-15T03:29:09.114Z,100931.81
2022-11-15T03:31:51.157Z,100991.25
2022-11-15T03:34:39.537Z,101004.53
2022-11-15T03:37:06.941Z,100997.19
2022-11-15T03:39:34.096Z,100994.31
2022-11-15T03:42:07.993Z,100990.09
2022-11-15T03:44:47.700Z,100918.28
2022-11-15T03:47:24.590Z,100983.63
2022-11-15T03:50:00.267Z,100955.34
2022-11-15T03:52:26.768Z,100977.31
2022-11-15T03:54:57.672Z,100867.09
2022-11-15T03:57:24.142Z,100975.03
2022-11-15T03:59:52.898Z,100925.38
2022-11-15T04:02:19.333Z,100952.00
2022-11-15T04:04:45.852Z,100985.63
2022-11-15T04:07:12.616Z,100989.28
2022-11-15T04:09:59.322Z,100970.81
2022-11-15T04:12:31.911Z,100987.34
2022-11-15T04:15:10.622Z,100974.16
2022-11-15T04:17:47.869Z,100976.28
2022-11-15T04:20:35.274Z,100953.94
2022-11-15T04:23:22.496Z,100851.88
2022-11-15T04:25:52.162Z,100932.16
2022-11-15T04:28:19.154Z,100987.16
2022-11-15T04:30:45.624Z,100983.44
2022-11-15T04:33:12.099Z,100979.72
2022-11-15T04:35:38.633Z,100990.97
2022-11-15T04:38:07.630Z,100981.06
2022-11-15T04:40:34.744Z,100955.25
2022-11-15T04:43:04.000Z,100998.59
2022-11-15T04:45:31.413Z,100982.47
2022-11-15T04:47:57.869Z,100986.03
2022-11-15T04:50:24.297Z,100936.63
2022-11-15T04:52:53.481Z,100986.19
2022-11-15T04:55:20.342Z,100978.47
2022-11-15T04:57:46.884Z,100990.59
2022-11-15T05:00:15.953Z,100945.91
2022-11-15T05:03:00.855Z,100985.22
2022-11-15T05:05:27.313Z,100881.44
2022-11-15T05:07:53.772Z,100972.72
2022-11-15T05:10:20.217Z,100986.56
2022-11-15T05:12:47.757Z,100958.56
2022-11-15T05:15:14.303Z,100980.50
2022-11-15T05:17:40.755Z,100977.72
2022-11-15T05:20:07.835Z,100978.22
2022-11-15T05:22:34.369Z,100942.41
2022-11-15T05:25:00.859Z,100965.81
2022-11-15T05:27:27.334Z,100909.88
2022-11-15T05:29:53.793Z,100838.56
2022-11-15T05:32:20.194Z,100971.66
2022-11-15T05:34:47.413Z,100970.53
2022-11-15T05:37:15.210Z,100941.22
2022-11-15T05:39:41.693Z,100967.53
2022-11-15T05:42:14.324Z,100958.97
2022-11-15T05:44:45.645Z,100971.44
2022-11-15T05:47:18.130Z,100977.75
2022-11-15T05:49:46.448Z,100978.13
2022-11-15T05:52:16.430Z,100951.25
2022-11-15T05:54:43.608Z,100971.16
2022-11-15T05:57:10.154Z,100973.00
2022-11-15T05:59:37.313Z,100922.66
2022-11-15T06:02:03.940Z,100974.09
2022-11-15T06:04:30.463Z,100873.38
2022-11-15T06:06:58.882Z,100908.09
2022-11-15T06:09:25.384Z,100977.94
2022-11-15T06:11:51.793Z,100973.84
2022-11-15T06:14:18.198Z,100984.19
2022-11-15T06:16:45.073Z,100884.13
2022-11-15T06:19:11.552Z,100978.72
2022-11-15T06:21:38.015Z,100909.84
2022-11-15T06:24:05.575Z,100940.22
2022-11-15T06:26:32.630Z,100957.91
2022-11-15T06:28:59.137Z,100968.53
2022-11-15T06:31:25.656Z,100989.72
2022-11-15T06:33:52.128Z,100982.94
2022-11-15T06:36:19.095Z,100986.81
2022-11-15T06:38:45.985Z,100990.25
2022-11-15T06:41:13.858Z,100987.47
2022-11-15T06:43:40.880Z,100907.19
2022-11-15T06:46:07.988Z,100840.47
2022-11-15T06:48:35.393Z,100969.53
2022-11-15T06:51:03.540Z,100908.06
2022-11-15T06:53:31.387Z,100964.81
2022-11-15T06:56:02.409Z,101020.53
2022-11-15T06:58:28.944Z,100961.59
2022-11-15T07:00:59.757Z,101001.44
2022-11-15T07:03:26.871Z,100999.91
2022-11-15T07:05:55.682Z,100989.97
2022-11-15T07:08:23.296Z,101007.13
2022-11-15T07:10:50.223Z,101006.59
2022-11-15T07:13:17.017Z,101013.63
2022-11-15T07:15:43.565Z,101012.91
2022-11-15T07:18:10.081Z,101021.75
2022-11-15T07:20:36.498Z,101003.75
2022-11-15T07:23:06.971Z,101000.56
2022-11-15T07:25:33.753Z,100967.53
2022-11-15T07:28:01.079Z,101015.41
2022-11-15T07:30:28.809Z,101017.88
2022-11-15T07:32:56.692Z,101012.84
2022-11-15T07:35:24.338Z,100980.44
2022-11-15T07:37:58.527Z,101023.78
2022-11-15T07:40:25.988Z,101005.44
2022-11-15T07:42:55.386Z,101025.06
2022-11-15T07:45:22.659Z,101021.31
2022-11-15T07:47:50.725Z,100967.44
2022-11-15T07:50:18.484Z,101008.44
2022-11-15T07:52:45.407Z,100985.06
2022-11-15T07:55:12.056Z,100922.69
2022-11-15T07:57:38.555Z,101031.50
2022-11-15T08:00:06.464Z,101008.44
2022-11-15T08:02:33.117Z,101007.97
2022-11-15T08:05:00.299Z,101012.06
2022-11-15T08:07:29.947Z,100920.97
2022-11-15T08:09:56.501Z,100975.94
2022-11-15T08:12:23.358Z,100951.78
2022-11-15T08:14:50.361Z,101007.06
2022-11-15T08:17:16.853Z,101000.84
2022-11-15T08:19:43.299Z,101019.75
2022-11-15T08:22:09.776Z,100988.66
2022-11-15T08:24:36.266Z,100909.63
2022-11-15T08:27:02.785Z,100856.31
2022-11-15T08:29:29.297Z,100999.13
2022-11-15T08:31:57.107Z,101005.25
2022-11-15T08:34:23.554Z,100991.22
2022-11-15T08:36:50.195Z,101000.53
2022-11-15T08:39:16.641Z,100992.47
2022-11-15T08:41:43.058Z,101000.63
2022-11-15T08:44:09.509Z,101004.06
2022-11-15T08:46:35.929Z,100961.88
2022-11-15T08:49:02.340Z,100998.44
2022-11-15T08:51:28.827Z,100996.13
2022-11-15T08:53:55.298Z,101007.75
2022-11-15T08:56:21.763Z,101014.50
2022-11-15T08:58:48.605Z,101017.06
2022-11-15T09:01:20.486Z,101024.66
2022-11-15T09:03:46.946Z,100999.00
2022-11-15T09:06:13.782Z,101008.84
2022-11-15T09:08:47.016Z,100915.16
2022-11-15T09:11:14.190Z,100940.81
2022-11-15T09:13:40.719Z,101009.34
2022-11-15T09:16:07.695Z,100967.56
2022-11-15T09:18:34.447Z,101015.72
2022-11-15T09:21:03.227Z,100919.75
2022-11-15T09:23:29.953Z,100963.59
2022-11-15T09:26:02.176Z,101006.72
2022-11-15T09:28:29.943Z,101012.66
2022-11-15T09:31:01.069Z,101005.25
2022-11-15T09:33:28.134Z,100926.97
2022-11-15T09:35:55.207Z,101005.47
2022-11-15T09:38:21.879Z,101002.19
2022-11-15T09:40:58.484Z,100964.69
2022-11-15T09:43:31.953Z,100992.88
2022-11-15T09:46:16.205Z,101001.09
2022-11-15T09:48:55.268Z,100962.88
2022-11-15T09:51:28.503Z,100903.06
2022-11-15T09:57:05.185Z,100982.44
2022-11-15T09:59:43.551Z,101020.13
2022-11-15T10:02:47.246Z,101008.78
2022-11-15T10:05:19.215Z,101011.94
2022-11-15T10:07:59.410Z,100944.53
2022-11-15T10:10:47.740Z,101014.16
2022-11-15T10:13:23.580Z,100997.84
2022-11-15T10:15:51.979Z,100972.50
2022-11-15T10:18:35.595Z,100998.56
2022-11-15T10:21:18.569Z,100996.31
2022-11-15T10:23:45.194Z,100910.84
2022-11-15T10:26:16.500Z,100995.16
2022-11-15T10:28:42.949Z,100985.66
2022-11-15T10:31:28.678Z,100896.41
2022-11-15T10:34:13.652Z,100982.72
2022-11-15T10:36:54.909Z,100905.97
2022-11-15T10:42:18.134Z,100967.16
2022-11-15T10:44:45.965Z,100963.84
2022-11-15T10:47:37.830Z,100965.31
2022-11-15T10:50:28.090Z,100965.88
2022-11-15T10:52:54.827Z,100962.81
2022-11-15T10:55:28.982Z,100924.13
2022-11-15T10:58:34.270Z,100965.09
2022-11-15T11:01:11.595Z,100886.34
2022-11-15T11:03:40.197Z,100945.72
2022-11-15T11:06:17.903Z,100933.72
2022-11-15T11:09:06.244Z,100948.22
2022-11-15T11:11:47.448Z,100956.63
2022-11-15T11:14:23.280Z,100938.91
2022-11-15T11:16:56.294Z,100930.28
2022-11-15T11:19:42.769Z,100923.13
2022-11-15T11:22:40.338Z,100932.53
2022-11-15T11:25:23.830Z,100919.56
2022-11-15T11:28:02.359Z,100933.03
2022-11-15T11:30:46.907Z,100929.59
2022-11-15T11:33:50.652Z,100925.53
2022-11-15T11:36:28.391Z,100921.69
2022-11-15T11:38:56.196Z,100927.41
2022-11-15T11:41:50.861Z,100923.59
2022-11-15T11:44:42.472Z,100919.84
2022-11-15T11:47:17.165Z,100906.41
2022-11-15T11:49:57.947Z,100900.59
2022-11-15T11:52:42.489Z,100909.75
2022-11-15T11:55:18.024Z,100900.53
2022-11-15T11:58:05.692Z,100858.91
2022-11-15T12:00:37.051Z,100904.50
2022-11-15T12:03:15.196Z,100905.66
2022-11-15T12:05:50.154Z,100897.63
2022-11-15T12:08:19.355Z,100894.13
2022-11-15T12:10:51.681Z,100840.19
2022-11-15T12:13:24.533Z,100880.50
2022-11-15T12:16:10.447Z,100893.31
2022-11-15T12:18:37.871Z,100861.03
2022-11-15T12:21:15.764Z,100869.59
2022-11-15T12:23:49.174Z,100871.41
2022-11-15T12:26:27.130Z,100801.56
2022-11-15T12:29:07.595Z,100826.22
2022-11-15T12:31:52.414Z,100870.88
2022-11-15T12:34:21.718Z,100858.78
2022-11-15T12:36:50.244Z,100865.97
2022-11-15T12:39:17.958Z,100863.38
2022-11-15T12:42:05.869Z,100862.84
2022-11-15T12:44:32.313Z,100863.44
2022-11-15T12:46:58.745Z,100873.75
2022-11-15T12:49:43.394Z,100864.72
2022-11-15T12:52:10.880Z,100832.00
2022-11-15T12:54:37.274Z,100853.91
2022-11-15T12:57:03.713Z,100849.44
2022-11-15T12:59:54.215Z,100845.25
2022-11-15T13:02:24.918Z,100850.16
2022-11-15T13:04:53.405Z,100845.53
2022-11-15T13:07:41.872Z,100845.09
2022-11-15T13:10:11.416Z,100849.38
2022-11-15T13:12:43.671Z,100847.78
2022-11-15T13:15:13.168Z,100838.03
2022-11-15T13:17:56.813Z,100769.03
2022-11-15T13:20:32.020Z,100836.22
2022-11-15T13:23:16.780Z,100808.84
2022-11-15T13:25:58.429Z,100821.47
2022-11-15T13:28:38.510Z,100748.16
2022-11-15T13:31:38.066Z,100815.81
2022-11-15T13:37:23.578Z,100820.78
2022-11-15T13:39:50.748Z,100801.22
2022-11-15T13:42:19.182Z,100775.50
2022-11-15T13:44:57.659Z,100796.78
2022-11-15T13:47:28.138Z,100797.28
2022-11-15T13:49:54.676Z,100786.31
2022-11-15T13:52:22.542Z,100789.16
2022-11-15T13:55:00.525Z,100793.50
2022-11-15T13:57:31.169Z,100787.84
2022-11-15T14:00:02.164Z,100729.38
2022-11-15T14:02:33.746Z,100783.47
2022-11-15T14:05:16.393Z,100683.16
2022-11-15T14:07:55.005Z,100759.44
2022-11-15T14:10:33.773Z,100783.00
2022-11-15T14:13:01.412Z,100779.91
2022-11-15T14:15:36.622Z,100729.44
2022-11-15T14:18:04.661Z,100792.78
2022-11-15T14:20:37.761Z,100798.75
2022-11-15T14:23:19.210Z,100785.81
2022-11-15T14:25:54.612Z,100790.13
2022-11-15T14:28:24.199Z,100779.06
2022-11-15T14:30:55.521Z,100752.47
2022-11-15T14:33:26.483Z,100773.50
2022-11-15T14:35:54.060Z,100770.56
2022-11-15T14:38:20.741Z,100708.28
2022-11-15T14:40:47.524Z,100768.13
2022-11-15T14:43:14.422Z,100779.22
2022-11-15T14:45:41.584Z,100758.78
2022-11-15T14:48:08.505Z,100781.13
2022-11-15T14:50:35.960Z,100722.25
2022-11-15T14:53:03.383Z,100691.81
2022-11-15T14:55:34.795Z,100774.84
2022-11-15T14:58:03.310Z,100773.56
2022-11-15T15:00:35.409Z,100786.88
2022-11-15T15:03:03.149Z,100739.88
2022-11-15T15:05:35.284Z,100776.63
2022-11-15T15:08:01.851Z,100752.41
2022-11-15T15:10:39.959Z,100755.19
2022-11-15T15:13:11.452Z,100732.88
2022-11-15T15:15:38.733Z,100700.22
2022-11-15T15:18:05.919Z,100779.72
2022-11-15T15:20:33.415Z,100781.69
2022-11-15T15:22:59.885Z,100718.00
2022-11-15T15:25:33.027Z,100779.31
2022-11-15T15:28:00.471Z,100735.91
2022-11-15T15:30:29.942Z,100728.78
2022-11-15T15:32:56.760Z,100778.59
2022-11-15T15:35:23.729Z,100773.03
2022-11-15T15:37:51.157Z,100706.50
2022-11-15T15:40:21.151Z,100783.00
2022-11-15T15:42:48.744Z,100703.06
2022-11-15T15:45:16.497Z,100769.97
2022-11-15T15:47:43.608Z,100780.47
2022-11-15T15:50:33.120Z,100782.00
2022-11-15T15:53:01.816Z,100782.53
2022-11-15T15:55:28.903Z,100745.16
2022-11-15T15:57:55.641Z,100720.97
2022-11-15T16:00:24.641Z,100693.09
2022-11-15T16:02:51.768Z,100707.38
2022-11-15T16:05:18.717Z,100785.97
2022-11-15T16:07:47.389Z,100691.03
2022-11-15T16:10:21.397Z,100773.16
2022-11-15T16:12:48.818Z,100750.78
2022-11-15T16:15:15.627Z,100714.22
2022-11-15T16:17:48.016Z,100688.72
2022-11-15T16:20:45.462Z,100757.72
2022-11-15T16:23:15.426Z,100762.38
2022-11-15T16:25:59.028Z,100743.47
2022-11-15T16:28:28.003Z,100749.81
2022-11-15T16:31:07.142Z,100737.06
2022-11-15T16:33:34.255Z,100732.78
2022-11-15T16:36:01.147Z,100732.50
2022-11-15T16:38:28.165Z,100719.81
2022-11-15T16:40:54.668Z,100723.59
2022-11-15T16:43:21.103Z,100722.09
2022-11-15T16:45:47.911Z,100662.41
2022-11-15T16:48:25.578Z,100718.66
2022-11-15T16:50:56.348Z,100718.41
2022-11-15T16:53:23.898Z,100708.88
2022-11-15T16:55:50.425Z,100716.03
2022-11-15T16:58:16.850Z,100709.03
2022-11-15T17:00:43.547Z,100716.63
2022-11-15T17:03:10.123Z,100713.78
2022-11-15T17:05:37.085Z,100687.19
2022-11-15T17:08:03.543Z,100696.13
2022-11-15T17:10:30.290Z,100716.03
2022-11-15T17:12:56.891Z,100631.34
2022-11-15T17:15:24.558Z,100713.38
2022-11-15T17:17:55.074Z,100716.31
2022-11-15T17:20:23.798Z,100643.31
2022-11-15T17:22:50.336Z,100711.13
2022-11-15T17:25:17.008Z,100649.81
2022-11-15T17:27:43.516Z,100711.63
2022-11-15T17:30:15.229Z,100654.09
2022-11-15T17:32:42.979Z,100717.22
2022-11-15T17:35:43.446Z,100714.53
2022-11-15T17:38:09.959Z,100659.72
2022-11-15T17:40:36.421Z,100605.41
2022-11-15T17:43:04.749Z,100706.84
2022-11-15T17:45:31.210Z,100707.47
2022-11-15T17:47:57.667Z,100637.81
2022-11-15T17:50:24.137Z,100706.31
2022-11-15T17:52:50.666Z,100593.03
2022-11-15T17:55:17.086Z,100678.25
2022-11-15T17:57:44.221Z,100696.50
2022-11-15T18:00:11.471Z,100689.50
2022-11-15T18:02:38.034Z,100677.66
2022-11-15T18:05:04.879Z,100604.22
2022-11-15T18:07:31.392Z,100700.84
2022-11-15T18:09:57.932Z,100624.50
2022-11-15T18:12:24.489Z,100666.75
2022-11-15T18:14:50.944Z,100664.78
2022-11-15T18:17:19.067Z,100686.41
2022-11-15T18:19:45.550Z,100685.66
2022-11-15T18:22:12.017Z,100616.78
2022-11-15T18:24:38.715Z,100688.00
2022-11-15T18:27:06.397Z,100674.75
2022-11-15T18:29:34.643Z,100676.63
2022-11-15T18:32:03.998Z,100614.50
2022-11-15T18:34:32.574Z,100659.09
2022-11-15T18:37:00.487Z,100578.13
2022-11-15T18:39:26.992Z,100610.03
2022-11-15T18:41:53.612Z,100646.34
2022-11-15T18:44:20.086Z,100643.19
2022-11-15T18:46:46.621Z,100570.31
2022-11-15T18:49:15.214Z,100650.63
2022-11-15T18:51:42.231Z,100647.47
2022-11-15T18:54:13.555Z,100645.41
2022-11-15T18:56:40.643Z,100646.19
2022-11-15T18:59:08.804Z,100637.47
2022-11-15T19:01:40.244Z,100639.06
2022-11-15T19:04:09.856Z,100648.19
2022-11-15T19:06:41.947Z,100664.47
2022-11-15T19:09:10.297Z,100644.91
2022-11-15T19:11:39.460Z,100542.44
2022-11-15T19:14:11.438Z,100567.09
2022-11-15T19:16:40.656Z,100641.81
2022-11-15T19:19:11.446Z,100652.19
2022-11-15T19:21:38.360Z,100653.56
2022-11-15T19:24:05.582Z,100609.28
2022-11-15T19:26:32.380Z,100651.59
2022-11-15T19:29:01.290Z,100658.13
2022-11-15T19:31:29.647Z,100665.19
2022-11-15T19:33:58.830Z,100647.91
2022-11-15T19:36:28.941Z,100646.19
2022-11-15T19:38:56.485Z,100648.31
2022-11-15T19:41:25.933Z,100644.31
2022-11-15T19:43:52.854Z,100634.00
2022-11-15T19:46:21.916Z,100636.03
2022-11-15T19:48:48.669Z,100638.38
2022-11-15T19:51:19.243Z,100634.84
2022-11-15T19:53:45.915Z,100635.56
2022-11-15T19:56:17.908Z,100628.59
2022-11-15T19:58:45.740Z,100577.72
2022-11-15T20:01:32.372Z,100635.34
2022-11-15T20:04:00.008Z,100610.72
2022-11-15T20:06:39.271Z,100512.28
2022-11-15T20:09:18.361Z,100633.63
2022-11-15T20:11:45.065Z,100630.22
2022-11-15T20:14:13.708Z,100582.84
2022-11-15T20:16:40.535Z,100620.56
2022-11-15T20:19:08.487Z,100615.63
2022-11-15T20:21:35.899Z,100616.34
2022-11-15T20:24:02.323Z,100623.28
2022-11-15T20:26:30.416Z,100576.94
2022-11-15T20:29:01.174Z,100624.44
2022-11-15T20:31:28.356Z,100596.00
2022-11-15T20:33:54.872Z,100619.50
2022-11-15T20:36:21.335Z,100596.19
2022-11-15T20:38:47.837Z,100585.53
2022-11-15T20:41:14.780Z,100594.06
2022-11-15T20:43:43.508Z,100631.44
2022-11-15T20:46:12.107Z,100627.31
2022-11-15T20:48:38.737Z,100539.56
2022-11-15T20:51:06.610Z,100554.97
2022-11-15T20:53:33.417Z,100614.66
2022-11-15T20:56:14.582Z,100614.41
2022-11-15T20:58:41.895Z,100611.69
2022-11-15T21:01:10.712Z,100615.53
2022-11-15T21:03:37.411Z,100613.13
2022-11-15T21:06:03.945Z,100607.59
2022-11-15T21:08:53.681Z,100606.84
2022-11-15T21:11:42.070Z,100603.47
2022-11-15T21:14:09.752Z,100548.00
2022-11-15T21:16:36.740Z,100559.00
2022-11-15T21:19:05.565Z,100594.69
2022-11-15T21:21:32.198Z,100581.31
2022-11-15T21:23:58.707Z,100597.53
2022-11-15T21:26:26.447Z,100588.88
2022-11-15T21:28:52.910Z,100496.44
2022-11-15T21:31:19.313Z,100499.44
2022-11-15T21:33:45.767Z,100591.34
2022-11-15T21:36:12.626Z,100528.25
2022-11-15T21:38:39.054Z,100586.84
2022-11-15T21:41:06.116Z,100511.66
2022-11-15T21:43:32.712Z,100584.38
2022-11-15T21:46:04.378Z,100508.44
2022-11-15T21:48:33.119Z,100590.38
2022-11-15T21:51:05.498Z,100590.78
2022-11-15T21:53:32.726Z,100587.00
2022-11-15T21:56:00.271Z,100590.13
2022-11-15T21:58:27.084Z,100505.66
2022-11-15T22:01:15.386Z,100601.13
2022-11-15T22:03:42.647Z,100590.88
2022-11-15T22:06:16.011Z,100575.94
2022-11-15T22:08:44.682Z,100567.72
2022-11-15T22:11:11.121Z,100580.78
2022-11-15T22:13:37.938Z,100507.25
2022-11-15T22:16:04.540Z,100487.63
2022-11-15T22:18:31.234Z,100571.22
2022-11-15T22:21:00.650Z,100474.56
2022-11-15T22:23:29.716Z,100567.78
2022-11-15T22:25:56.828Z,100470.66
2022-11-15T22:28:24.072Z,100568.66
2022-11-15T22:30:53.387Z,100560.19
2022-11-15T22:33:22.389Z,100518.69
2022-11-15T22:35:49.705Z,100556.53
2022-11-15T22:38:16.548Z,100560.31
2022-11-15T22:40:43.755Z,100554.31
2022-11-15T22:43:13.131Z,100565.09
2022-11-15T22:45:55.975Z,100490.31
2022-11-15T22:48:29.249Z,100494.56
2022-11-15T22:50:56.425Z,100547.88
2022-11-15T22:53:23.782Z,100534.09
2022-11-15T22:55:56.182Z,100548.56
2022-11-15T22:58:24.753Z,100549.78
2022-11-15T23:00:52.978Z,100554.78
2022-11-15T23:03:20.815Z,100560.28
2022-11-15T23:05:48.114Z,100509.97
2022-11-15T23:08:14.912Z,100550.84
2022-11-15T23:11:00.352Z,100549.94
2022-11-15T23:13:29.225Z,100554.88
2022-11-15T23:16:23.999Z,100549.16
2022-11-15T23:18:51.730Z,100551.78
2022-11-15T23:21:43.577Z,100543.72
2022-11-15T23:24:11.952Z,100426.97
2022-11-15T23:26:39.411Z,100539.44
2022-11-15T23:29:08.128Z,100536.88
2022-11-15T23:32:01.163Z,100528.69
2022-11-15T23:34:29.369Z,100495.72
2022-11-15T23:36:55.952Z,100520.75
2022-11-15T23:39:22.564Z,100491.25
2022-11-15T23:41:49.085Z,100525.19
2022-11-15T23:44:15.657Z,100481.06
2022-11-15T23:46:42.297Z,100488.06
2022-11-15T23:49:08.898Z,100440.34
2022-11-15T23:51:36.016Z,100522.09
2022-11-15T23:54:02.548Z,100515.31
2022-11-15T23:56:29.119Z,100505.44
2022-11-15T23:58:55.813Z,100455.47
